Time,TemperatureF,DewpointF,PressureIn,WindDirection,WindDirectionDegrees,WindSpeedMPH,WindSpeedGustMPH,Humidity,HourlyPrecipIn,Conditions,Clouds,dailyrainin,SolarRadiationWatts/m^2,SoftwareType,DateUTC
2013-05-25 00:01:00,54.4,30.0,30.00,NE,42,3.0,3.0,39,0.00,,,0.00,0,WeatherCatV1.02B3,2013-05-25 08:01:00,
2013-05-25 00:06:00,54.3,29.2,30.00,NE,43,3.0,5.0,38,0.00,,,0.00,0,WeatherCatV1.02B3,2013-05-25 08:06:00,
2013-05-25 00:11:00,54.4,30.0,30.00,ENE,68,2.0,4.0,39,0.00,,,0.00,0,WeatherCatV1.02B3,2013-05-25 08:11:00,
2013-05-25 00:16:00,54.4,30.0,30.00,ENE,68,1.0,4.0,39,0.00,,,0.00,0,WeatherCatV1.02B3,2013-05-25 08:16:00,
2013-05-25 00:21:00,54.4,30.0,30.00,ENE,74,0.0,2.0,39,0.00,,,0.00,0,WeatherCatV1.02B3,2013-05-25 08:21:00,
2013-05-25 00:25:00,54.2,30.4,30.00,ENE,74,0.0,2.0,40,0.00,,,0.00,0,WeatherCatV1.02B3,2013-05-25 08:25:00,
2013-05-25 00:30:00,53.8,30.0,30.00,ENE,74,1.0,4.0,40,0.00,,,0.00,0,WeatherCatV1.02B3,2013-05-25 08:30:00,
2013-05-25 00:35:00,53.7,29.3,30.00,ENE,74,0.0,2.0,39,0.00,,,0.00,0,WeatherCatV1.02B3,2013-05-25 08:35:00,
2013-05-25 00:40:00,53.4,29.7,30.00,ENE,74,3.0,3.0,40,0.00,,,0.00,0,WeatherCatV1.02B3,2013-05-25 08:40:00,
2013-05-25 00:45:00,53.0,29.3,30.00,ENE,74,0.0,4.0,40,0.00,,,0.00,0,WeatherCatV1.02B3,2013-05-25 08:45:00,
2013-05-25 00:50:00,53.2,28.9,30.00,ENE,74,0.0,3.0,39,0.00,,,0.00,0,WeatherCatV1.02B3,2013-05-25 08:50:00,
2013-05-25 00:55:00,53.5,29.2,30.00,ENE,74,3.0,3.0,39,0.00,,,0.00,0,WeatherCatV1.02B3,2013-05-25 08:55:00,
2013-05-25 01:00:00,53.7,28.7,30.00,ENE,74,3.0,4.0,38,0.00,,,0.00,0,WeatherCatV1.02B3,2013-05-25 09:00:00,
2013-05-25 01:05:00,53.6,28.6,30.00,ENE,74,1.0,2.0,38,0.00,,,0.00,0,WeatherCatV1.02B3,2013-05-25 09:05:00,
2013-05-25 01:10:00,53.4,29.1,30.00,ENE,74,0.0,2.0,39,0.00,,,0.00,0,WeatherCatV1.02B3,2013-05-25 09:10:00,
2013-05-25 01:15:00,53.1,28.8,30.00,ENE,74,2.0,3.0,39,0.00,,,0.00,0,WeatherCatV1.02B3,2013-05-25 09:15:00,
2013-05-25 01:20:00,52.9,28.6,30.01,ENE,74,3.0,4.0,39,0.00,,,0.00,0,WeatherCatV1.02B3,2013-05-25 09:20:00,
2013-05-25 01:25:00,53.0,28.7,30.00,ENE,74,1.0,3.0,39,0.00,,,0.00,0,WeatherCatV1.02B3,2013-05-25 09:25:00,
2013-05-25 01:30:00,52.9,28.6,30.00,ENE,74,0.0,2.0,39,0.00,,,0.00,0,WeatherCatV1.02B3,2013-05-25 09:30:00,
2013-05-25 01:35:00,52.8,29.2,30.01,ENE,75,2.0,5.0,40,0.00,,,0.00,0,WeatherCatV1.02B3,2013-05-25 09:35:00,
2013-05-25 01:40:00,52.5,30.1,30.00,East,89,1.0,5.0,42,0.00,,,0.00,0,WeatherCatV1.02B3,2013-05-25 09:40:00,
2013-05-25 01:45:00,52.1,29.7,30.00,ESE,104,3.0,4.0,42,0.00,,,0.00,0,WeatherCatV1.02B3,2013-05-25 09:45:00,
2013-05-25 01:50:00,52.3,29.9,30.00,ESE,115,2.0,5.0,42,0.00,,,0.00,0,WeatherCatV1.02B3,2013-05-25 09:50:00,
2013-05-25 01:55:00,52.4,30.0,30.01,ESE,117,2.0,9.0,42,0.00,,,0.00,0,WeatherCatV1.02B3,2013-05-25 09:55:00,
2013-05-25 02:00:00,52.5,29.5,30.00,ESE,120,2.0,7.0,41,0.00,,,0.00,0,WeatherCatV1.02B3,2013-05-25 10:00:00,
2013-05-25 02:05:00,52.5,28.9,30.00,ESE,119,3.0,6.0,40,0.00,,,0.00,0,WeatherCatV1.02B3,2013-05-25 10:05:00,
2013-05-25 02:10:00,52.0,29.6,30.00,ESE,119,0.0,0.0,42,0.00,,,0.00,0,WeatherCatV1.02B3,2013-05-25 10:10:00,
2013-05-25 02:15:00,50.4,29.3,30.00,ESE,119,1.0,1.0,44,0.00,,,0.00,0,WeatherCatV1.02B3,2013-05-25 10:15:00,
2013-05-25 02:20:00,49.0,29.1,30.00,ESE,119,2.0,2.0,46,0.00,,,0.00,0,WeatherCatV1.02B3,2013-05-25 10:20:00,
2013-05-25 02:25:00,48.2,29.4,30.00,ESE,119,0.0,0.0,48,0.00,,,0.00,0,WeatherCatV1.02B3,2013-05-25 10:25:00,
2013-05-25 02:30:00,47.4,29.2,30.00,ESE,119,0.0,1.0,49,0.00,,,0.00,0,WeatherCatV1.02B3,2013-05-25 10:30:00,
2013-05-25 02:35:00,46.6,29.0,30.01,ESE,119,0.0,0.0,50,0.00,,,0.00,0,WeatherCatV1.02B3,2013-05-25 10:35:00,
2013-05-25 02:40:00,46.2,28.1,30.01,ESE,119,1.0,1.0,49,0.00,,,0.00,0,WeatherCatV1.02B3,2013-05-25 10:40:00,
2013-05-25 02:45:00,46.2,29.1,30.01,ESE,119,0.0,0.0,51,0.00,,,0.00,0,WeatherCatV1.02B3,2013-05-25 10:45:00,
2013-05-25 02:50:00,45.8,29.2,30.00,ESE,119,0.0,1.0,52,0.00,,,0.00,0,WeatherCatV1.02B3,2013-05-25 10:50:00,
2013-05-25 02:55:00,45.4,28.8,30.01,ESE,119,0.0,0.0,52,0.00,,,0.00,0,WeatherCatV1.02B3,2013-05-25 10:55:00,
2013-05-25 03:00:00,45.1,29.0,30.01,ESE,119,0.0,0.0,53,0.00,,,0.00,0,WeatherCatV1.02B3,2013-05-25 11:00:00,
2013-05-25 03:05:00,45.1,29.0,30.01,ESE,119,0.0,0.0,53,0.00,,,0.00,0,WeatherCatV1.02B3,2013-05-25 11:05:00,
2013-05-25 03:10:00,44.8,29.2,30.01,ESE,119,0.0,0.0,54,0.00,,,0.00,0,WeatherCatV1.02B3,2013-05-25 11:10:00,
2013-05-25 03:15:00,44.6,29.4,30.00,ESE,119,0.0,0.0,55,0.00,,,0.00,0,WeatherCatV1.02B3,2013-05-25 11:15:00,
2013-05-25 03:20:00,44.4,29.3,30.00,ESE,119,0.0,0.0,55,0.00,,,0.00,0,WeatherCatV1.02B3,2013-05-25 11:20:00,
2013-05-25 03:25:00,44.2,29.1,30.00,ESE,119,0.0,0.0,55,0.00,,,0.00,0,WeatherCatV1.02B3,2013-05-25 11:25:00,
2013-05-25 03:30:00,44.1,29.0,30.00,ESE,119,2.0,3.0,55,0.00,,,0.00,0,WeatherCatV1.02B3,2013-05-25 11:30:00,
2013-05-25 03:35:00,44.9,28.8,30.00,ESE,119,1.0,1.0,53,0.00,,,0.00,0,WeatherCatV1.02B3,2013-05-25 11:35:00,
2013-05-25 03:40:00,45.9,28.8,30.01,ESE,119,0.0,0.0,51,0.00,,,0.00,0,WeatherCatV1.02B3,2013-05-25 11:40:00,
2013-05-25 03:45:00,46.5,28.4,30.01,ESE,119,0.0,1.0,49,0.00,,,0.00,0,WeatherCatV1.02B3,2013-05-25 11:45:00,
2013-05-25 03:50:00,46.7,29.5,30.00,ESE,119,0.0,0.0,51,0.00,,,0.00,0,WeatherCatV1.02B3,2013-05-25 11:50:00,
2013-05-25 03:55:00,46.5,28.9,30.00,ESE,119,0.0,0.0,50,0.00,,,0.00,0,WeatherCatV1.02B3,2013-05-25 11:55:00,
2013-05-25 04:00:00,46.0,29.8,30.00,ESE,119,0.0,0.0,53,0.00,,,0.00,0,WeatherCatV1.02B3,2013-05-25 12:00:00,
2013-05-25 04:05:00,45.3,29.6,30.00,ESE,119,0.0,0.0,54,0.00,,,0.00,0,WeatherCatV1.02B3,2013-05-25 12:05:00,
2013-05-25 04:10:00,44.6,29.4,30.00,ESE,119,0.0,0.0,55,0.00,,,0.00,0,WeatherCatV1.02B3,2013-05-25 12:10:00,
2013-05-25 04:15:00,44.1,29.4,30.00,ESE,119,0.0,1.0,56,0.00,,,0.00,0,WeatherCatV1.02B3,2013-05-25 12:15:00,
2013-05-25 04:20:00,43.9,29.7,29.99,ESE,119,1.0,2.0,57,0.00,,,0.00,0,WeatherCatV1.02B3,2013-05-25 12:20:00,
2013-05-25 04:25:00,43.6,29.8,30.00,ESE,119,0.0,0.0,58,0.00,,,0.00,0,WeatherCatV1.02B3,2013-05-25 12:25:00,
2013-05-25 04:30:00,43.5,29.7,30.00,ESE,119,0.0,2.0,58,0.00,,,0.00,0,WeatherCatV1.02B3,2013-05-25 12:30:00,
2013-05-25 04:35:00,44.0,29.8,30.00,ESE,119,0.0,0.0,57,0.00,,,0.00,0,WeatherCatV1.02B3,2013-05-25 12:35:00,
2013-05-25 04:40:00,44.2,29.9,30.00,ESE,119,0.0,0.0,57,0.00,,,0.00,0,WeatherCatV1.02B3,2013-05-25 12:40:00,
2013-05-25 04:45:00,44.6,30.3,30.00,ESE,119,0.0,0.0,57,0.00,,,0.00,0,WeatherCatV1.02B3,2013-05-25 12:45:00,
2013-05-25 04:50:00,43.9,30.1,30.00,ESE,119,0.0,1.0,58,0.00,,,0.00,0,WeatherCatV1.02B3,2013-05-25 12:50:00,
2013-05-25 04:55:00,43.4,30.0,30.00,ESE,119,0.0,2.0,59,0.00,,,0.00,0,WeatherCatV1.02B3,2013-05-25 12:55:00,
2013-05-25 05:00:00,43.3,30.4,30.00,ESE,119,0.0,1.0,60,0.00,,,0.00,5,WeatherCatV1.02B3,2013-05-25 13:00:00,
2013-05-25 05:05:00,43.2,29.9,30.00,ESE,119,0.0,2.0,59,0.00,,,0.00,5,WeatherCatV1.02B3,2013-05-25 13:05:00,
2013-05-25 05:10:00,43.2,29.9,30.00,ESE,119,0.0,2.0,59,0.00,,,0.00,7,WeatherCatV1.02B3,2013-05-25 13:10:00,
2013-05-25 05:15:00,43.8,30.0,30.00,ESE,119,1.0,2.0,58,0.00,,,0.00,7,WeatherCatV1.02B3,2013-05-25 13:15:00,
2013-05-25 05:20:00,44.9,29.7,30.00,ESE,119,3.0,4.0,55,0.00,,,0.00,9,WeatherCatV1.02B3,2013-05-25 13:20:00,
2013-05-25 05:25:00,45.8,30.1,30.00,ESE,119,0.0,1.0,54,0.00,,,0.00,11,WeatherCatV1.02B3,2013-05-25 13:25:00,
2013-05-25 05:30:00,46.3,29.6,30.00,ESE,119,0.0,1.0,52,0.00,,,0.00,11,WeatherCatV1.02B3,2013-05-25 13:30:00,
2013-05-25 05:35:00,46.2,30.5,30.00,ESE,119,0.0,0.0,54,0.00,,,0.00,12,WeatherCatV1.02B3,2013-05-25 13:35:00,
2013-05-25 05:40:00,45.4,30.6,30.00,ESE,119,0.0,0.0,56,0.00,,,0.00,12,WeatherCatV1.02B3,2013-05-25 13:40:00,
2013-05-25 05:45:00,44.4,30.1,29.99,ESE,119,0.0,1.0,57,0.00,,,0.00,14,WeatherCatV1.02B3,2013-05-25 13:45:00,
2013-05-25 05:50:00,43.6,29.8,29.99,ESE,119,0.0,0.0,58,0.00,,,0.00,16,WeatherCatV1.02B3,2013-05-25 13:50:00,
2013-05-25 05:55:00,43.4,30.0,29.99,ESE,119,0.0,1.0,59,0.00,,,0.00,16,WeatherCatV1.02B3,2013-05-25 13:55:00,
2013-05-25 06:00:00,43.2,30.3,29.99,ESE,119,0.0,0.0,60,0.00,,,0.00,18,WeatherCatV1.02B3,2013-05-25 14:00:00,
2013-05-25 06:05:00,43.1,30.2,29.99,ESE,119,3.0,3.0,60,0.00,,,0.00,18,WeatherCatV1.02B3,2013-05-25 14:05:00,
2013-05-25 06:10:00,43.5,30.1,29.99,ESE,119,0.0,0.0,59,0.00,,,0.00,19,WeatherCatV1.02B3,2013-05-25 14:10:00,
2013-05-25 06:15:00,43.9,30.9,29.99,ESE,119,0.0,0.0,60,0.00,,,0.00,19,WeatherCatV1.02B3,2013-05-25 14:15:00,
2013-05-25 06:20:00,43.8,30.8,29.99,ESE,119,0.0,0.0,60,0.00,,,0.00,21,WeatherCatV1.02B3,2013-05-25 14:20:00,
2013-05-25 06:25:00,43.5,31.0,29.99,ESE,119,0.0,0.0,61,0.00,,,0.00,21,WeatherCatV1.02B3,2013-05-25 14:25:00,
2013-05-25 06:30:00,43.5,31.0,29.99,ESE,119,0.0,0.0,61,0.00,,,0.00,23,WeatherCatV1.02B3,2013-05-25 14:30:00,
2013-05-25 06:35:00,43.6,30.6,29.99,ESE,119,0.0,0.0,60,0.00,,,0.00,23,WeatherCatV1.02B3,2013-05-25 14:35:00,
2013-05-25 06:40:00,43.8,30.4,29.99,ESE,119,1.0,1.0,59,0.00,,,0.00,25,WeatherCatV1.02B3,2013-05-25 14:40:00,
2013-05-25 06:45:00,44.1,31.1,29.99,ESE,119,0.0,0.0,60,0.00,,,0.00,25,WeatherCatV1.02B3,2013-05-25 14:45:00,
2013-05-25 06:50:00,44.1,31.5,29.99,ESE,119,0.0,0.0,61,0.00,,,0.00,26,WeatherCatV1.02B3,2013-05-25 14:50:00,
2013-05-25 06:55:00,43.9,31.3,29.99,ESE,119,0.0,1.0,61,0.00,,,0.00,26,WeatherCatV1.02B3,2013-05-25 14:55:00,
2013-05-25 07:00:00,44.1,31.5,29.99,ESE,119,0.0,0.0,61,0.00,,,0.00,28,WeatherCatV1.02B3,2013-05-25 15:00:00,
2013-05-25 07:05:00,44.4,31.4,29.99,ESE,119,0.0,1.0,60,0.00,,,0.00,28,WeatherCatV1.02B3,2013-05-25 15:05:00,
2013-05-25 07:10:00,44.9,31.5,29.99,ESE,119,0.0,0.0,59,0.00,,,0.00,28,WeatherCatV1.02B3,2013-05-25 15:10:00,
2013-05-25 07:15:00,45.3,31.8,29.99,ESE,119,0.0,2.0,59,0.00,,,0.00,30,WeatherCatV1.02B3,2013-05-25 15:15:00,
2013-05-25 07:20:00,45.9,31.1,29.99,ESE,119,0.0,2.0,56,0.00,,,0.00,30,WeatherCatV1.02B3,2013-05-25 15:20:00,
2013-05-25 07:25:00,46.6,30.9,29.99,ESE,119,0.0,1.0,54,0.00,,,0.00,32,WeatherCatV1.02B3,2013-05-25 15:25:00,
2013-05-25 07:30:00,47.3,31.0,29.99,ESE,119,0.0,1.0,53,0.00,,,0.00,32,WeatherCatV1.02B3,2013-05-25 15:30:00,
2013-05-25 07:35:00,47.7,31.4,29.99,ESE,119,0.0,0.0,53,0.00,,,0.00,33,WeatherCatV1.02B3,2013-05-25 15:35:00,
2013-05-25 07:40:00,48.0,31.7,29.99,ESE,119,0.0,0.0,53,0.00,,,0.00,33,WeatherCatV1.02B3,2013-05-25 15:40:00,
2013-05-25 07:45:00,48.1,33.2,29.99,ESE,119,0.0,0.0,56,0.00,,,0.00,35,WeatherCatV1.02B3,2013-05-25 15:45:00,
2013-05-25 07:50:00,48.3,32.4,29.99,ESE,119,0.0,0.0,54,0.00,,,0.00,37,WeatherCatV1.02B3,2013-05-25 15:50:00,
2013-05-25 07:55:00,48.3,32.0,29.99,ESE,119,0.0,0.0,53,0.00,,,0.00,232,WeatherCatV1.02B3,2013-05-25 15:55:00,
2013-05-25 08:00:00,48.4,31.6,29.99,ESE,119,0.0,0.0,52,0.00,,,0.00,244,WeatherCatV1.02B3,2013-05-25 16:00:00,
2013-05-25 08:05:00,48.6,31.8,29.99,ESE,119,0.0,0.0,52,0.00,,,0.00,255,WeatherCatV1.02B3,2013-05-25 16:05:00,
2013-05-25 08:10:00,48.8,32.0,29.99,ESE,119,0.0,0.0,52,0.00,,,0.00,267,WeatherCatV1.02B3,2013-05-25 16:10:00,
2013-05-25 08:15:00,49.2,32.3,30.00,ESE,119,0.0,0.0,52,0.00,,,0.00,278,WeatherCatV1.02B3,2013-05-25 16:15:00,
2013-05-25 08:20:00,49.4,33.0,29.99,ESE,119,0.0,0.0,53,0.00,,,0.00,230,WeatherCatV1.02B3,2013-05-25 16:20:00,
2013-05-25 08:25:00,50.2,32.8,29.99,ESE,119,0.0,1.0,51,0.00,,,0.00,301,WeatherCatV1.02B3,2013-05-25 16:25:00,
2013-05-25 08:30:00,50.6,33.1,29.99,ESE,120,0.0,0.0,51,0.00,,,0.00,309,WeatherCatV1.02B3,2013-05-25 16:30:00,
2013-05-25 08:35:00,51.1,33.6,29.99,ESE,120,0.0,2.0,51,0.00,,,0.00,320,WeatherCatV1.02B3,2013-05-25 16:35:00,
2013-05-25 08:40:00,51.4,33.4,29.99,ESE,120,0.0,0.0,50,0.00,,,0.00,330,WeatherCatV1.02B3,2013-05-25 16:40:00,
2013-05-25 08:45:00,51.6,33.6,29.99,ESE,120,1.0,2.0,50,0.00,,,0.00,341,WeatherCatV1.02B3,2013-05-25 16:45:00,
2013-05-25 08:50:00,51.6,33.6,30.00,ESE,120,0.0,0.0,50,0.00,,,0.00,350,WeatherCatV1.02B3,2013-05-25 16:50:00,
2013-05-25 08:55:00,51.7,34.2,29.99,ESE,120,0.0,0.0,51,0.00,,,0.00,360,WeatherCatV1.02B3,2013-05-25 16:55:00,
2013-05-25 09:00:00,51.9,34.3,29.99,ESE,120,0.0,0.0,51,0.00,,,0.00,369,WeatherCatV1.02B3,2013-05-25 17:00:00,
2013-05-25 09:05:00,52.2,34.1,29.99,ESE,120,0.0,1.0,50,0.00,,,0.00,378,WeatherCatV1.02B3,2013-05-25 17:05:00,
2013-05-25 09:10:00,52.3,34.2,29.99,ESE,120,2.0,4.0,50,0.00,,,0.00,390,WeatherCatV1.02B3,2013-05-25 17:10:00,
2013-05-25 09:15:00,52.2,34.1,29.99,ESE,120,0.0,0.0,50,0.00,,,0.00,399,WeatherCatV1.02B3,2013-05-25 17:15:00,
2013-05-25 09:20:00,52.2,34.6,29.99,ESE,120,1.0,3.0,51,0.00,,,0.00,410,WeatherCatV1.02B3,2013-05-25 17:20:00,
2013-05-25 09:25:00,52.2,35.1,29.99,ESE,120,1.0,3.0,52,0.00,,,0.00,422,WeatherCatV1.02B3,2013-05-25 17:25:00,
2013-05-25 09:30:00,52.2,35.1,29.99,ESE,120,2.0,3.0,52,0.00,,,0.00,432,WeatherCatV1.02B3,2013-05-25 17:30:00,
2013-05-25 09:35:00,52.5,35.4,29.99,ESE,120,0.0,1.0,52,0.00,,,0.00,443,WeatherCatV1.02B3,2013-05-25 17:35:00,
2013-05-25 09:40:00,52.8,35.7,29.99,ESE,115,2.0,5.0,52,0.00,,,0.00,455,WeatherCatV1.02B3,2013-05-25 17:40:00,
2013-05-25 09:45:00,52.9,35.8,29.99,ESE,115,4.0,4.0,52,0.00,,,0.00,466,WeatherCatV1.02B3,2013-05-25 17:45:00,
2013-05-25 09:50:00,52.9,35.8,29.99,ESE,115,0.0,4.0,52,0.00,,,0.00,478,WeatherCatV1.02B3,2013-05-25 17:50:00,
2013-05-25 09:55:00,53.1,35.9,29.99,ESE,115,3.0,4.0,52,0.00,,,0.00,490,WeatherCatV1.02B3,2013-05-25 17:55:00,
2013-05-25 10:00:00,53.4,36.2,29.99,ESE,115,1.0,2.0,52,0.00,,,0.00,501,WeatherCatV1.02B3,2013-05-25 18:00:00,
2013-05-25 10:05:00,53.8,36.6,29.99,ESE,115,1.0,3.0,52,0.00,,,0.00,513,WeatherCatV1.02B3,2013-05-25 18:05:00,
2013-05-25 10:10:00,53.9,37.2,29.98,ESE,115,0.0,4.0,53,0.00,,,0.00,524,WeatherCatV1.02B3,2013-05-25 18:10:00,
2013-05-25 10:15:00,54.2,37.0,29.98,ESE,115,2.0,4.0,52,0.00,,,0.00,534,WeatherCatV1.02B3,2013-05-25 18:15:00,
2013-05-25 10:20:00,54.4,36.2,29.98,ESE,114,1.0,4.0,50,0.00,,,0.00,547,WeatherCatV1.02B3,2013-05-25 18:20:00,
2013-05-25 10:25:00,54.4,36.7,29.99,ESE,114,3.0,5.0,51,0.00,,,0.00,554,WeatherCatV1.02B3,2013-05-25 18:25:00,
2013-05-25 10:30:00,54.6,36.8,29.99,ESE,114,0.0,0.0,51,0.00,,,0.00,555,WeatherCatV1.02B3,2013-05-25 18:30:00,
2013-05-25 10:35:00,54.9,36.6,29.99,ESE,111,1.0,5.0,50,0.00,,,0.00,571,WeatherCatV1.02B3,2013-05-25 18:35:00,
2013-05-25 10:40:00,55.3,37.5,29.99,South,173,4.0,7.0,51,0.00,,,0.00,582,WeatherCatV1.02B3,2013-05-25 18:40:00,
2013-05-25 10:45:00,55.3,37.0,29.99,South,182,4.0,5.0,50,0.00,,,0.00,592,WeatherCatV1.02B3,2013-05-25 18:45:00,
2013-05-25 10:50:00,55.4,37.1,29.98,SSW,213,4.0,7.0,50,0.00,,,0.00,603,WeatherCatV1.02B3,2013-05-25 18:50:00,
2013-05-25 10:55:00,55.4,37.1,29.98,SW,214,4.0,4.0,50,0.00,,,0.00,610,WeatherCatV1.02B3,2013-05-25 18:55:00,
2013-05-25 11:00:00,55.6,37.8,29.98,SW,214,3.0,4.0,51,0.00,,,0.00,621,WeatherCatV1.02B3,2013-05-25 19:00:00,
2013-05-25 11:05:00,55.9,38.0,29.98,SW,215,0.0,4.0,51,0.00,,,0.00,633,WeatherCatV1.02B3,2013-05-25 19:05:00,
2013-05-25 11:10:00,56.1,37.7,29.98,SW,216,3.0,5.0,50,0.00,,,0.00,645,WeatherCatV1.02B3,2013-05-25 19:10:00,
2013-05-25 11:15:00,56.5,38.6,29.98,SW,219,3.0,5.0,51,0.00,,,0.00,654,WeatherCatV1.02B3,2013-05-25 19:15:00,
2013-05-25 11:20:00,56.5,38.1,29.98,WSW,251,5.0,7.0,50,0.00,,,0.00,663,WeatherCatV1.02B3,2013-05-25 19:20:00,
2013-05-25 11:25:00,56.1,37.7,29.98,WSW,258,3.0,5.0,50,0.00,,,0.00,670,WeatherCatV1.02B3,2013-05-25 19:25:00,
2013-05-25 11:30:00,56.1,37.7,29.98,WSW,258,0.0,2.0,50,0.00,,,0.00,677,WeatherCatV1.02B3,2013-05-25 19:30:00,
2013-05-25 11:35:00,56.4,38.0,29.98,WSW,258,2.0,3.0,50,0.00,,,0.00,680,WeatherCatV1.02B3,2013-05-25 19:35:00,
2013-05-25 11:40:00,56.7,38.3,29.98,West,271,7.0,8.0,50,0.00,,,0.00,691,WeatherCatV1.02B3,2013-05-25 19:40:00,
2013-05-25 11:45:00,56.3,38.4,29.98,WNW,288,5.0,5.0,51,0.00,,,0.00,698,WeatherCatV1.02B3,2013-05-25 19:45:00,
2013-05-25 11:50:00,56.4,38.0,29.98,WNW,288,6.0,6.0,50,0.00,,,0.00,703,WeatherCatV1.02B3,2013-05-25 19:50:00,
2013-05-25 11:55:00,57.1,39.1,29.98,WNW,289,4.0,7.0,51,0.00,,,0.00,715,WeatherCatV1.02B3,2013-05-25 19:55:00,
2013-05-25 12:00:00,57.4,38.4,29.98,WNW,290,3.0,6.0,49,0.00,,,0.00,722,WeatherCatV1.02B3,2013-05-25 20:00:00,
2013-05-25 12:05:00,57.5,38.5,29.97,WNW,290,5.0,5.0,49,0.00,,,0.00,726,WeatherCatV1.02B3,2013-05-25 20:05:00,
2013-05-25 12:10:00,57.7,38.7,29.97,WNW,292,6.0,6.0,49,0.00,,,0.00,733,WeatherCatV1.02B3,2013-05-25 20:10:00,
2013-05-25 12:15:00,57.9,38.9,29.97,WNW,292,3.0,6.0,49,0.00,,,0.00,744,WeatherCatV1.02B3,2013-05-25 20:15:00,
2013-05-25 12:20:00,58.0,38.4,29.97,WNW,292,1.0,4.0,48,0.00,,,0.00,749,WeatherCatV1.02B3,2013-05-25 20:20:00,
2013-05-25 12:25:00,58.3,38.2,29.97,WNW,292,0.0,1.0,47,0.00,,,0.00,763,WeatherCatV1.02B3,2013-05-25 20:25:00,
2013-05-25 12:30:00,58.6,37.9,29.98,WNW,292,0.0,3.0,46,0.00,,,0.00,758,WeatherCatV1.02B3,2013-05-25 20:30:00,
2013-05-25 12:35:00,58.9,30.6,29.97,West,270,3.0,6.0,34,0.00,,,0.00,773,WeatherCatV1.02B3,2013-05-25 20:35:00,
2013-05-25 12:40:00,59.4,30.3,29.97,South,180,1.0,7.0,33,0.00,,,0.00,772,WeatherCatV1.02B3,2013-05-25 20:40:00,
2013-05-25 12:45:00,60.0,31.6,29.97,SE,131,6.0,10.0,34,0.00,,,0.00,789,WeatherCatV1.02B3,2013-05-25 20:45:00,
2013-05-25 12:50:00,60.3,32.5,29.97,SE,130,1.0,2.0,35,0.00,,,0.00,789,WeatherCatV1.02B3,2013-05-25 20:50:00,
2013-05-25 12:55:00,60.6,32.1,29.97,SE,144,4.0,6.0,34,0.00,,,0.00,796,WeatherCatV1.02B3,2013-05-25 20:55:00,
2013-05-25 13:00:00,60.5,32.7,29.97,SE,126,0.0,11.0,35,0.00,,,0.00,803,WeatherCatV1.02B3,2013-05-25 21:00:00,
2013-05-25 13:05:00,60.8,32.3,29.97,SSE,157,3.0,9.0,34,0.00,,,0.00,810,WeatherCatV1.02B3,2013-05-25 21:05:00,
2013-05-25 13:10:00,60.4,33.3,29.97,SSE,156,5.0,9.0,36,0.00,,,0.00,817,WeatherCatV1.02B3,2013-05-25 21:10:00,
2013-05-25 13:15:00,60.4,31.9,29.97,SE,130,2.0,10.0,34,0.00,,,0.00,817,WeatherCatV1.02B3,2013-05-25 21:15:00,
2013-05-25 13:20:00,60.2,33.8,29.97,South,178,1.0,5.0,37,0.00,,,0.00,826,WeatherCatV1.02B3,2013-05-25 21:20:00,
2013-05-25 13:25:00,60.4,33.3,29.97,South,172,1.0,10.0,36,0.00,,,0.00,824,WeatherCatV1.02B3,2013-05-25 21:25:00,
2013-05-25 13:30:00,60.8,33.7,29.97,SE,140,5.0,13.0,36,0.00,,,0.00,828,WeatherCatV1.02B3,2013-05-25 21:30:00,
2013-05-25 13:35:00,60.3,32.5,29.97,SE,124,11.0,18.0,35,0.00,,,0.00,833,WeatherCatV1.02B3,2013-05-25 21:35:00,
2013-05-25 13:40:00,60.1,33.1,29.97,SE,132,0.0,8.0,36,0.00,,,0.00,833,WeatherCatV1.02B3,2013-05-25 21:40:00,
2013-05-25 13:45:00,60.5,34.1,29.96,SE,136,6.0,11.0,37,0.00,,,0.00,835,WeatherCatV1.02B3,2013-05-25 21:45:00,
2013-05-25 13:50:00,60.6,34.9,29.97,SSE,158,0.0,7.0,38,0.00,,,0.00,833,WeatherCatV1.02B3,2013-05-25 21:50:00,
2013-05-25 13:53:00,60.5,34.1,29.97,SE,124,3.0,11.0,37,0.00,,,0.00,835,WeatherCatV1.02B3,2013-05-25 21:53:00,
2013-05-25 13:58:00,60.9,35.8,29.96,SSE,155,3.0,5.0,39,0.00,,,0.00,831,WeatherCatV1.02B3,2013-05-25 21:58:00,
2013-05-25 14:03:00,61.0,34.5,29.96,SE,144,2.0,6.0,37,0.00,,,0.00,837,WeatherCatV1.02B3,2013-05-25 22:03:00,
2013-05-25 14:08:00,61.0,34.5,29.96,ESE,120,2.0,11.0,37,0.00,,,0.00,837,WeatherCatV1.02B3,2013-05-25 22:08:00,
2013-05-25 14:13:00,60.4,34.0,29.96,SE,134,4.0,13.0,37,0.00,,,0.00,835,WeatherCatV1.02B3,2013-05-25 22:13:00,
2013-05-25 14:18:00,60.6,34.2,29.96,South,182,2.0,12.0,37,0.00,,,0.00,838,WeatherCatV1.02B3,2013-05-25 22:18:00,
2013-05-25 14:23:00,60.9,34.5,29.96,ESE,115,3.0,9.0,37,0.00,,,0.00,837,WeatherCatV1.02B3,2013-05-25 22:23:00,
2013-05-25 14:28:00,61.1,34.6,29.95,South,172,8.0,11.0,37,0.00,,,0.00,840,WeatherCatV1.02B3,2013-05-25 22:28:00,
2013-05-25 14:33:00,61.1,35.3,29.96,SSE,151,2.0,5.0,38,0.00,,,0.00,837,WeatherCatV1.02B3,2013-05-25 22:33:00,
2013-05-25 14:38:00,61.2,34.7,29.95,SE,130,3.0,10.0,37,0.00,,,0.00,840,WeatherCatV1.02B3,2013-05-25 22:38:00,
2013-05-25 14:43:00,61.3,34.8,29.96,SE,132,7.0,15.0,37,0.00,,,0.00,837,WeatherCatV1.02B3,2013-05-25 22:43:00,
2013-05-25 14:48:00,61.0,34.5,29.96,SE,124,5.0,13.0,37,0.00,,,0.00,837,WeatherCatV1.02B3,2013-05-25 22:48:00,
2013-05-25 14:53:00,60.9,35.1,29.96,SSE,155,0.0,10.0,38,0.00,,,0.00,835,WeatherCatV1.02B3,2013-05-25 22:53:00,
2013-05-25 14:58:00,61.5,35.0,29.96,ESE,118,2.0,7.0,37,0.00,,,0.00,835,WeatherCatV1.02B3,2013-05-25 22:58:00,
2013-05-25 15:03:00,61.2,35.4,29.95,East,88,11.0,17.0,38,0.00,,,0.00,828,WeatherCatV1.02B3,2013-05-25 23:03:00,
2013-05-25 15:08:00,60.8,35.7,29.95,SSE,148,4.0,10.0,39,0.00,,,0.00,828,WeatherCatV1.02B3,2013-05-25 23:08:00,
2013-05-25 15:13:00,61.3,34.8,29.95,SSE,167,6.0,6.0,37,0.00,,,0.00,821,WeatherCatV1.02B3,2013-05-25 23:13:00,
2013-05-25 15:18:00,61.3,34.8,29.95,South,175,4.0,10.0,37,0.00,,,0.00,819,WeatherCatV1.02B3,2013-05-25 23:18:00,
2013-05-25 15:23:00,61.7,35.8,29.95,SSE,155,1.0,7.0,38,0.00,,,0.00,817,WeatherCatV1.02B3,2013-05-25 23:23:00,
2013-05-25 15:28:00,62.1,35.5,29.95,SE,124,5.0,9.0,37,0.00,,,0.00,810,WeatherCatV1.02B3,2013-05-25 23:28:00,
2013-05-25 15:33:00,62.4,35.1,29.95,South,180,1.0,6.0,36,0.00,,,0.00,807,WeatherCatV1.02B3,2013-05-25 23:33:00,
2013-05-25 15:38:00,62.9,34.8,29.95,ESE,120,0.0,9.0,35,0.00,,,0.00,803,WeatherCatV1.02B3,2013-05-25 23:38:00,
2013-05-25 15:43:00,62.9,33.4,29.95,ESE,119,4.0,9.0,33,0.00,,,0.00,800,WeatherCatV1.02B3,2013-05-25 23:43:00,
2013-05-25 15:48:00,62.7,34.7,29.95,SSE,149,2.0,12.0,35,0.00,,,0.00,795,WeatherCatV1.02B3,2013-05-25 23:48:00,
2013-05-25 15:54:00,61.8,33.9,29.95,SE,125,8.0,14.0,35,0.00,,,0.00,791,WeatherCatV1.02B3,2013-05-25 23:54:00,
2013-05-25 15:59:00,61.7,34.5,29.95,SE,130,2.0,10.0,36,0.00,,,0.00,786,WeatherCatV1.02B3,2013-05-25 23:59:00,
2013-05-25 16:04:00,61.7,34.5,29.95,SE,140,10.0,16.0,36,0.00,,,0.00,779,WeatherCatV1.02B3,2013-05-26 00:04:00,
2013-05-25 16:09:00,61.6,33.7,29.95,SSE,147,5.0,7.0,35,0.00,,,0.00,770,WeatherCatV1.02B3,2013-05-26 00:09:00,
2013-05-25 16:14:00,61.7,33.8,29.95,SE,130,6.0,10.0,35,0.00,,,0.00,766,WeatherCatV1.02B3,2013-05-26 00:14:00,
2013-05-25 16:19:00,62.3,35.0,29.95,ESE,117,12.0,12.0,36,0.00,,,0.00,759,WeatherCatV1.02B3,2013-05-26 00:19:00,
2013-05-25 16:24:00,62.4,34.4,29.94,South,185,10.0,11.0,35,0.00,,,0.00,752,WeatherCatV1.02B3,2013-05-26 00:24:00,
2013-05-25 16:29:00,62.1,34.1,29.94,SSE,148,9.0,14.0,35,0.00,,,0.00,749,WeatherCatV1.02B3,2013-05-26 00:29:00,
2013-05-25 16:34:00,61.7,34.5,29.94,SE,135,6.0,11.0,36,0.00,,,0.00,740,WeatherCatV1.02B3,2013-05-26 00:34:00,
2013-05-25 16:39:00,61.5,34.3,29.93,SE,138,7.0,10.0,36,0.00,,,0.00,733,WeatherCatV1.02B3,2013-05-26 00:39:00,
2013-05-25 16:44:00,61.4,34.2,29.93,SE,141,11.0,14.0,36,0.00,,,0.00,726,WeatherCatV1.02B3,2013-05-26 00:44:00,
2013-05-25 16:49:00,61.4,34.2,29.93,SE,136,5.0,20.0,36,0.00,,,0.00,719,WeatherCatV1.02B3,2013-05-26 00:49:00,
2013-05-25 16:54:00,61.6,35.1,29.93,SSE,149,9.0,15.0,37,0.00,,,0.00,710,WeatherCatV1.02B3,2013-05-26 00:54:00,
2013-05-25 16:59:00,61.6,35.1,29.92,SE,145,3.0,6.0,37,0.00,,,0.00,707,WeatherCatV1.02B3,2013-05-26 00:59:00,
2013-05-25 17:04:00,61.9,34.7,29.92,SSW,192,5.0,20.0,36,0.00,,,0.00,700,WeatherCatV1.02B3,2013-05-26 01:04:00,
2013-05-25 17:09:00,61.8,33.9,29.92,SSE,149,11.0,19.0,35,0.00,,,0.00,689,WeatherCatV1.02B3,2013-05-26 01:09:00,
2013-05-25 17:14:00,61.7,35.2,29.92,SE,134,11.0,19.0,37,0.00,,,0.00,680,WeatherCatV1.02B3,2013-05-26 01:14:00,
2013-05-25 17:19:00,61.3,34.8,29.92,ESE,115,21.0,24.0,37,0.00,,,0.00,679,WeatherCatV1.02B3,2013-05-26 01:19:00,
2013-05-25 17:24:00,61.2,34.7,29.92,SE,132,15.0,17.0,37,0.00,,,0.00,663,WeatherCatV1.02B3,2013-05-26 01:24:00,
2013-05-25 17:29:00,61.5,35.7,29.92,SE,135,11.0,15.0,38,0.00,,,0.00,652,WeatherCatV1.02B3,2013-05-26 01:29:00,
2013-05-25 17:34:00,61.3,35.5,29.92,ESE,108,13.0,19.0,38,0.00,,,0.00,645,WeatherCatV1.02B3,2013-05-26 01:34:00,
2013-05-25 17:39:00,61.0,34.5,29.91,ESE,118,9.0,24.0,37,0.00,,,0.00,638,WeatherCatV1.02B3,2013-05-26 01:39:00,
2013-05-25 17:44:00,61.0,34.5,29.91,South,190,9.0,17.0,37,0.00,,,0.00,626,WeatherCatV1.02B3,2013-05-26 01:44:00,
2013-05-25 17:49:00,60.7,34.3,29.91,ESE,120,11.0,28.0,37,0.00,,,0.00,621,WeatherCatV1.02B3,2013-05-26 01:49:00,
2013-05-25 17:54:00,60.9,35.1,29.91,SE,128,10.0,14.0,38,0.00,,,0.00,601,WeatherCatV1.02B3,2013-05-26 01:54:00,
2013-05-25 17:59:00,60.7,34.3,29.91,ESE,115,22.0,23.0,37,0.00,,,0.00,594,WeatherCatV1.02B3,2013-05-26 01:59:00,
2013-05-25 18:04:00,61.0,35.2,29.91,ESE,106,14.0,18.0,38,0.00,,,0.00,582,WeatherCatV1.02B3,2013-05-26 02:04:00,
2013-05-25 18:09:00,61.2,34.7,29.91,ESE,115,21.0,23.0,37,0.00,,,0.00,573,WeatherCatV1.02B3,2013-05-26 02:09:00,
2013-05-25 18:14:00,60.8,35.0,29.91,SE,137,28.0,28.0,38,0.00,,,0.00,563,WeatherCatV1.02B3,2013-05-26 02:14:00,
2013-05-25 18:19:00,60.3,33.2,29.90,SE,125,18.0,30.0,36,0.00,,,0.00,550,WeatherCatV1.02B3,2013-05-26 02:19:00,
2013-05-25 18:24:00,60.1,33.7,29.91,SSE,151,2.0,22.0,37,0.00,,,0.00,541,WeatherCatV1.02B3,2013-05-26 02:24:00,
2013-05-25 18:29:00,60.1,33.1,29.91,ESE,111,20.0,26.0,36,0.00,,,0.00,531,WeatherCatV1.02B3,2013-05-26 02:29:00,
2013-05-25 18:34:00,59.8,33.5,29.91,ESE,120,9.0,12.0,37,0.00,,,0.00,515,WeatherCatV1.02B3,2013-05-26 02:34:00,
2013-05-25 18:39:00,60.1,33.1,29.91,ESE,122,9.0,19.0,36,0.00,,,0.00,504,WeatherCatV1.02B3,2013-05-26 02:39:00,
2013-05-25 18:44:00,59.9,33.6,29.91,ESE,122,5.0,30.0,37,0.00,,,0.00,504,WeatherCatV1.02B3,2013-05-26 02:44:00,
2013-05-25 18:49:00,60.2,33.8,29.90,SSE,148,7.0,17.0,37,0.00,,,0.00,480,WeatherCatV1.02B3,2013-05-26 02:49:00,
2013-05-25 18:54:00,60.3,33.9,29.91,South,177,6.0,17.0,37,0.00,,,0.00,466,WeatherCatV1.02B3,2013-05-26 02:54:00,
2013-05-25 18:59:00,60.1,33.7,29.91,SE,126,6.0,12.0,37,0.00,,,0.00,459,WeatherCatV1.02B3,2013-05-26 02:59:00,
2013-05-25 19:04:00,60.1,33.7,29.91,SE,134,12.0,12.0,37,0.00,,,0.00,443,WeatherCatV1.02B3,2013-05-26 03:04:00,
2013-05-25 19:09:00,60.1,33.1,29.91,SE,140,7.0,14.0,36,0.00,,,0.00,432,WeatherCatV1.02B3,2013-05-26 03:09:00,
2013-05-25 19:14:00,60.3,32.5,29.90,SSE,155,3.0,12.0,35,0.00,,,0.00,418,WeatherCatV1.02B3,2013-05-26 03:14:00,
2013-05-25 19:19:00,60.2,31.7,29.90,SSE,154,11.0,16.0,34,0.00,,,0.00,413,WeatherCatV1.02B3,2013-05-26 03:19:00,
2013-05-25 19:24:00,60.1,31.6,29.90,ESE,106,11.0,13.0,34,0.00,,,0.00,401,WeatherCatV1.02B3,2013-05-26 03:24:00,
2013-05-25 19:29:00,60.1,31.6,29.89,ESE,113,16.0,19.0,34,0.00,,,0.00,387,WeatherCatV1.02B3,2013-05-26 03:29:00,
2013-05-25 19:34:00,60.1,30.9,29.89,ESE,113,6.0,17.0,33,0.00,,,0.00,378,WeatherCatV1.02B3,2013-05-26 03:34:00,
2013-05-25 19:39:00,60.1,30.9,29.89,ESE,122,6.0,22.0,33,0.00,,,0.00,364,WeatherCatV1.02B3,2013-05-26 03:39:00,
2013-05-25 19:44:00,60.0,30.8,29.89,SE,129,6.0,18.0,33,0.00,,,0.00,352,WeatherCatV1.02B3,2013-05-26 03:44:00,
2013-05-25 19:49:00,60.0,30.1,29.89,ESE,117,6.0,17.0,32,0.00,,,0.00,339,WeatherCatV1.02B3,2013-05-26 03:49:00,
2013-05-25 19:54:00,59.8,29.9,29.89,SE,126,11.0,22.0,32,0.00,,,0.00,330,WeatherCatV1.02B3,2013-05-26 03:54:00,
2013-05-25 19:59:00,59.9,29.2,29.89,SE,128,9.0,20.0,31,0.00,,,0.00,320,WeatherCatV1.02B3,2013-05-26 03:59:00,
2013-05-25 20:01:00,59.9,29.2,29.89,SE,125,10.0,14.0,31,0.00,,,0.00,316,WeatherCatV1.02B3,2013-05-26 04:01:00,
2013-05-25 20:06:00,59.7,30.6,29.89,ESE,121,2.0,21.0,33,0.00,,,0.00,304,WeatherCatV1.02B3,2013-05-26 04:06:00,
2013-05-25 20:11:00,59.1,29.3,29.88,SSW,203,13.0,19.0,32,0.00,,,0.00,292,WeatherCatV1.02B3,2013-05-26 04:11:00,
2013-05-25 20:16:00,58.9,29.1,29.89,SE,132,4.0,17.0,32,0.00,,,0.00,281,WeatherCatV1.02B3,2013-05-26 04:16:00,
2013-05-25 20:21:00,59.0,28.4,29.89,SE,134,11.0,25.0,31,0.00,,,0.00,269,WeatherCatV1.02B3,2013-05-26 04:21:00,
2013-05-25 20:26:00,58.9,27.5,29.89,SE,131,10.0,14.0,30,0.00,,,0.00,253,WeatherCatV1.02B3,2013-05-26 04:26:00,
2013-05-25 20:31:00,58.9,27.5,29.89,ESE,120,15.0,17.0,30,0.00,,,0.00,239,WeatherCatV1.02B3,2013-05-26 04:31:00,
2013-05-25 20:36:00,58.9,27.5,29.89,SE,137,14.0,20.0,30,0.00,,,0.00,229,WeatherCatV1.02B3,2013-05-26 04:36:00,
2013-05-25 20:41:00,58.6,27.3,29.89,ESE,117,7.0,17.0,30,0.00,,,0.00,216,WeatherCatV1.02B3,2013-05-26 04:41:00,
2013-05-25 20:46:00,58.5,26.4,29.89,SE,142,5.0,17.0,29,0.00,,,0.00,202,WeatherCatV1.02B3,2013-05-26 04:46:00,
2013-05-25 20:51:00,58.8,25.8,29.89,SE,128,1.0,8.0,28,0.00,,,0.00,185,WeatherCatV1.02B3,2013-05-26 04:51:00,
2013-05-25 20:56:00,58.9,25.9,29.89,SSE,166,4.0,9.0,28,0.00,,,0.00,171,WeatherCatV1.02B3,2013-05-26 04:56:00,
2013-05-25 21:01:00,59.1,25.2,29.89,SE,130,6.0,10.0,27,0.00,,,0.00,160,WeatherCatV1.02B3,2013-05-26 05:01:00,
2013-05-25 21:06:00,58.9,25.0,29.88,SSW,203,0.0,5.0,27,0.00,,,0.00,146,WeatherCatV1.02B3,2013-05-26 05:06:00,
2013-05-25 21:11:00,58.9,23.1,29.89,SE,136,7.0,12.0,25,0.00,,,0.00,134,WeatherCatV1.02B3,2013-05-26 05:11:00,
2013-05-25 21:16:00,58.9,23.1,29.89,WNW,300,0.0,14.0,25,0.00,,,0.00,123,WeatherCatV1.02B3,2013-05-26 05:16:00,
2013-05-25 21:21:00,58.9,23.1,29.89,NNW,339,4.0,6.0,25,0.00,,,0.00,113,WeatherCatV1.02B3,2013-05-26 05:21:00,
2013-05-25 21:26:00,58.5,22.8,29.89,WNW,283,5.0,10.0,25,0.00,,,0.00,104,WeatherCatV1.02B3,2013-05-26 05:26:00,
2013-05-25 21:31:00,58.1,22.5,29.89,SSE,149,2.0,3.0,25,0.00,,,0.00,91,WeatherCatV1.02B3,2013-05-26 05:31:00,
2013-05-25 21:36:00,58.1,23.4,29.89,ESE,115,1.0,13.0,26,0.00,,,0.00,84,WeatherCatV1.02B3,2013-05-26 05:36:00,
2013-05-25 21:41:00,58.2,24.4,29.89,NNW,342,1.0,7.0,27,0.00,,,0.00,74,WeatherCatV1.02B3,2013-05-26 05:41:00,
2013-05-25 21:46:00,57.7,25.7,29.90,WNW,286,5.0,11.0,29,0.00,,,0.00,65,WeatherCatV1.02B3,2013-05-26 05:46:00,
2013-05-25 21:51:00,57.5,24.7,29.89,NNW,331,0.0,10.0,28,0.00,,,0.00,58,WeatherCatV1.02B3,2013-05-26 05:51:00,
2013-05-25 21:56:00,57.2,26.8,29.90,SW,228,7.0,9.0,31,0.00,,,0.00,51,WeatherCatV1.02B3,2013-05-26 05:56:00,
2013-05-25 22:01:00,57.0,27.4,29.90,WNW,292,3.0,4.0,32,0.00,,,0.00,42,WeatherCatV1.02B3,2013-05-26 06:01:00,
2013-05-25 22:06:00,57.1,25.2,29.90,WNW,292,0.0,2.0,29,0.00,,,0.00,35,WeatherCatV1.02B3,2013-05-26 06:06:00,
2013-05-25 22:11:00,57.2,24.4,29.90,NNW,330,0.0,6.0,28,0.00,,,0.00,30,WeatherCatV1.02B3,2013-05-26 06:11:00,
2013-05-25 22:16:00,57.0,27.4,29.90,NW,326,2.0,2.0,32,0.00,,,0.00,26,WeatherCatV1.02B3,2013-05-26 06:16:00,
2013-05-25 22:21:00,56.3,26.1,29.90,NW,307,6.0,7.0,31,0.00,,,0.00,23,WeatherCatV1.02B3,2013-05-26 06:21:00,
2013-05-25 22:26:00,56.3,26.1,29.90,NW,324,0.0,1.0,31,0.00,,,0.00,21,WeatherCatV1.02B3,2013-05-26 06:26:00,
2013-05-25 22:31:00,56.1,26.7,29.91,NE,47,0.0,4.0,32,0.00,,,0.00,18,WeatherCatV1.02B3,2013-05-26 06:31:00,
2013-05-25 22:36:00,55.9,24.1,29.90,West,269,0.0,4.0,29,0.00,,,0.00,16,WeatherCatV1.02B3,2013-05-26 06:36:00,
2013-05-25 22:41:00,55.8,27.1,29.90,WNW,290,0.0,4.0,33,0.00,,,0.00,14,WeatherCatV1.02B3,2013-05-26 06:41:00,
2013-05-25 22:46:00,55.4,26.0,29.90,WNW,289,4.0,6.0,32,0.00,,,0.00,12,WeatherCatV1.02B3,2013-05-26 06:46:00,
2013-05-25 22:51:00,54.7,26.2,29.90,WNW,289,3.0,4.0,33,0.00,,,0.00,9,WeatherCatV1.02B3,2013-05-26 06:51:00,
2013-05-25 22:56:00,54.4,25.2,29.90,NW,311,3.0,6.0,32,0.00,,,0.00,7,WeatherCatV1.02B3,2013-05-26 06:56:00,
2013-05-25 23:01:00,54.3,27.2,29.91,NW,313,1.0,2.0,35,0.00,,,0.00,5,WeatherCatV1.02B3,2013-05-26 07:01:00,
2013-05-25 23:06:00,53.9,26.9,29.91,NW,313,0.0,0.0,35,0.00,,,0.00,0,WeatherCatV1.02B3,2013-05-26 07:06:00,
2013-05-25 23:11:00,53.6,26.6,29.91,NW,313,1.0,3.0,35,0.00,,,0.00,0,WeatherCatV1.02B3,2013-05-26 07:11:00,
2013-05-25 23:16:00,53.3,27.0,29.91,NW,313,0.0,1.0,36,0.00,,,0.00,0,WeatherCatV1.02B3,2013-05-26 07:16:00,
2013-05-25 23:21:00,53.1,24.8,29.91,WNW,282,2.0,4.0,33,0.00,,,0.00,0,WeatherCatV1.02B3,2013-05-26 07:21:00,
2013-05-25 23:26:00,53.1,26.9,29.92,NW,316,0.0,4.0,36,0.00,,,0.00,0,WeatherCatV1.02B3,2013-05-26 07:26:00,
2013-05-25 23:31:00,52.7,26.5,29.92,NW,316,0.0,0.0,36,0.00,,,0.00,0,WeatherCatV1.02B3,2013-05-26 07:31:00,
2013-05-25 23:36:00,52.0,25.9,29.92,East,88,0.0,4.0,36,0.00,,,0.00,0,WeatherCatV1.02B3,2013-05-26 07:36:00,
2013-05-25 23:41:00,51.8,26.4,29.92,East,92,0.0,4.0,37,0.00,,,0.00,0,WeatherCatV1.02B3,2013-05-26 07:41:00,
2013-05-25 23:46:00,51.4,25.4,29.92,East,92,0.0,2.0,36,0.00,,,0.00,0,WeatherCatV1.02B3,2013-05-26 07:46:00,
2013-05-25 23:51:00,51.2,27.1,29.92,East,92,1.0,2.0,39,0.00,,,0.00,0,WeatherCatV1.02B3,2013-05-26 07:51:00,
2013-05-25 23:56:00,50.9,27.4,29.92,East,92,0.0,3.0,40,0.00,,,0.00,0,WeatherCatV1.02B3,2013-05-26 07:56:00,